createdAt,value
2022-08-21T00:00:12.855Z,84.40
2022-08-21T00:03:03.461Z,84.30
2022-08-21T00:05:32.043Z,83.30
2022-08-21T00:07:59.127Z,83.90
2022-08-21T00:10:26.387Z,83.80
2022-08-21T00:12:53.445Z,84.30
2022-08-21T00:15:27.930Z,84.20
2022-08-21T00:17:55.476Z,84.30
2022-08-21T00:20:23.030Z,84.70
2022-08-21T00:22:50.690Z,84.80
2022-08-21T00:25:18.256Z,85.10
2022-08-21T00:27:47.893Z,84.90
2022-08-21T00:30:22.930Z,84.50
2022-08-21T00:32:51.533Z,84.80
2022-08-21T00:35:21.677Z,85.10
2022-08-21T00:37:48.405Z,84.00
2022-08-21T00:40:20.436Z,84.60
2022-08-21T00:42:59.231Z,84.50
2022-08-21T00:45:26.505Z,85.10
2022-08-21T00:47:56.000Z,84.90
2022-08-21T00:50:23.961Z,85.50
2022-08-21T00:52:52.962Z,85.40
2022-08-21T00:55:23.554Z,85.00
2022-08-21T00:57:53.930Z,85.10
2022-08-21T01:00:29.933Z,85.50
2022-08-21T01:02:58.227Z,85.20
2022-08-21T01:05:26.139Z,85.40
2022-08-21T01:07:52.929Z,85.10
2022-08-21T01:10:24.147Z,85.10
2022-08-21T01:12:53.519Z,85.10
2022-08-21T01:15:22.653Z,85.20
2022-08-21T01:17:50.576Z,84.60
2022-08-21T01:20:17.969Z,85.30
2022-08-21T01:22:44.696Z,85.20
2022-08-21T01:25:16.020Z,85.10
2022-08-21T01:27:43.231Z,85.20
2022-08-21T01:30:17.911Z,86.10
2022-08-21T01:32:44.970Z,85.60
2022-08-21T01:35:13.201Z,85.30
2022-08-21T01:37:40.528Z,85.60
2022-08-21T01:40:08.895Z,85.70
2022-08-21T01:42:36.329Z,85.70
2022-08-21T01:45:05.171Z,85.40
2022-08-21T01:47:32.078Z,85.30
2022-08-21T01:49:58.984Z,85.10
2022-08-21T01:52:25.813Z,84.40
2022-08-21T01:54:55.256Z,85.00
2022-08-21T01:57:23.001Z,85.10
2022-08-21T01:59:53.814Z,84.70
2022-08-21T02:02:20.565Z,85.00
2022-08-21T02:04:47.275Z,85.70
2022-08-21T02:07:14.006Z,85.20
2022-08-21T02:09:43.006Z,85.40
2022-08-21T02:12:11.381Z,85.20
2022-08-21T02:14:38.921Z,85.50
2022-08-21T02:17:09.567Z,85.70
2022-08-21T02:19:40.113Z,84.60
2022-08-21T02:22:11.560Z,85.30
2022-08-21T02:24:54.712Z,85.40
2022-08-21T02:27:26.074Z,85.90
2022-08-21T02:29:56.755Z,85.60
2022-08-21T02:32:23.563Z,85.50
2022-08-21T02:34:50.771Z,85.00
2022-08-21T02:37:17.668Z,84.80
2022-08-21T02:39:44.421Z,85.00
2022-08-21T02:42:11.334Z,85.00
2022-08-21T02:44:38.029Z,84.40
2022-08-21T02:47:05.171Z,84.30
2022-08-21T02:49:31.872Z,84.70
2022-08-21T02:51:58.693Z,83.70
2022-08-21T02:54:25.666Z,84.10
2022-08-21T02:56:52.472Z,84.30
2022-08-21T02:59:19.230Z,84.30
2022-08-21T03:01:46.009Z,84.80
2022-08-21T03:04:12.852Z,84.70
2022-08-21T03:06:39.570Z,84.40
2022-08-21T03:09:06.292Z,84.40
2022-08-21T03:11:33.036Z,85.20
2022-08-21T03:13:59.841Z,84.90
2022-08-21T03:16:26.605Z,84.70
2022-08-21T03:18:54.021Z,84.60
2022-08-21T03:21:20.793Z,84.20
2022-08-21T03:23:47.559Z,84.70
2022-08-21T03:26:14.871Z,84.20
2022-08-21T03:28:42.933Z,83.70
2022-08-21T03:31:09.762Z,84.00
2022-08-21T03:33:36.641Z,84.00
2022-08-21T03:36:08.314Z,84.10
2022-08-21T03:38:36.259Z,83.90
2022-08-21T03:41:04.893Z,84.10
2022-08-21T03:43:32.634Z,84.50
2022-08-21T03:46:04.360Z,84.30
2022-08-21T03:48:31.339Z,84.00
2022-08-21T03:50:58.312Z,82.70
2022-08-21T03:53:25.874Z,82.80
2022-08-21T03:55:53.563Z,83.40
2022-08-21T03:58:23.968Z,83.50
2022-08-21T04:00:52.838Z,83.20
2022-08-21T04:03:19.711Z,82.90
2022-08-21T04:05:46.926Z,83.20
2022-08-21T04:08:15.055Z,83.30
2022-08-21T04:10:41.877Z,83.50
2022-08-21T04:13:09.894Z,83.20
2022-08-21T04:15:37.197Z,83.10
2022-08-21T04:18:04.898Z,83.80
2022-08-21T04:20:31.836Z,83.40
2022-08-21T04:22:58.806Z,82.10
2022-08-21T04:25:28.672Z,83.10
2022-08-21T04:27:55.629Z,82.70
2022-08-21T04:30:28.240Z,82.60
2022-08-21T04:32:56.807Z,82.40
2022-08-21T04:35:24.997Z,82.70
2022-08-21T04:37:51.798Z,82.70
2022-08-21T04:40:20.276Z,82.60
2022-08-21T04:42:54.085Z,82.80
2022-08-21T04:45:27.993Z,82.50
2022-08-21T04:47:58.116Z,83.00
2022-08-21T04:50:30.087Z,83.00
2022-08-21T04:53:06.175Z,82.00
2022-08-21T04:55:33.328Z,82.90
2022-08-21T04:58:01.051Z,83.00
2022-08-21T05:00:28.019Z,83.40
2022-08-21T05:02:59.920Z,82.90
2022-08-21T05:05:30.063Z,83.30
2022-08-21T05:08:00.030Z,82.70
2022-08-21T05:10:27.077Z,82.90
2022-08-21T05:12:54.034Z,82.60
2022-08-21T05:15:20.846Z,82.80
2022-08-21T05:17:53.726Z,82.50
2022-08-21T05:20:27.600Z,83.00
2022-08-21T05:22:55.220Z,82.80
2022-08-21T05:25:23.669Z,82.60
2022-08-21T05:27:52.372Z,81.90
2022-08-21T05:30:20.509Z,82.10
2022-08-21T05:32:48.385Z,82.00
2022-08-21T05:35:15.497Z,82.20
2022-08-21T05:37:42.177Z,82.10
2022-08-21T05:40:21.144Z,82.80
2022-08-21T05:42:54.093Z,82.40
2022-08-21T05:45:34.664Z,82.40
2022-08-21T05:48:23.716Z,82.20
2022-08-21T05:50:52.666Z,82.40
2022-08-21T05:53:21.389Z,82.50
2022-08-21T05:55:48.575Z,82.60
2022-08-21T05:58:18.066Z,82.40
2022-08-21T06:00:48.021Z,82.30
2022-08-21T06:03:27.590Z,82.40
2022-08-21T06:05:54.667Z,82.80
2022-08-21T06:08:22.393Z,82.70
2022-08-21T06:10:50.520Z,83.20
2022-08-21T06:13:18.872Z,83.50
2022-08-21T06:15:46.220Z,83.70
2022-08-21T06:18:13.381Z,83.80
2022-08-21T06:20:40.874Z,83.80
2022-08-21T06:23:07.771Z,83.60
2022-08-21T06:25:34.893Z,83.40
2022-08-21T06:28:10.800Z,83.10
2022-08-21T06:30:38.704Z,83.20
2022-08-21T06:33:07.207Z,83.10
2022-08-21T06:35:34.740Z,83.00
2022-08-21T06:38:01.881Z,82.80
2022-08-21T06:40:30.311Z,82.60
2022-08-21T06:42:59.198Z,82.80
2022-08-21T06:45:26.510Z,83.00
2022-08-21T06:47:56.752Z,82.50
2022-08-21T06:50:23.461Z,82.70
2022-08-21T06:52:50.298Z,82.70
2022-08-21T06:55:22.318Z,82.70
2022-08-21T06:57:52.577Z,82.40
2022-08-21T07:00:19.834Z,81.80
2022-08-21T07:02:46.545Z,81.80
2022-08-21T07:05:18.046Z,81.20
2022-08-21T07:07:46.346Z,81.40
2022-08-21T07:10:21.902Z,81.30
2022-08-21T07:12:50.043Z,81.50
2022-08-21T07:15:18.097Z,81.70
2022-08-21T07:17:45.286Z,80.50
2022-08-21T07:20:12.433Z,80.80
2022-08-21T07:22:41.297Z,79.40
2022-08-21T07:25:08.808Z,77.80
2022-08-21T07:27:35.580Z,78.30
2022-08-21T07:30:02.366Z,78.40
2022-08-21T07:32:29.101Z,79.20
2022-08-21T07:34:55.861Z,75.30
2022-08-21T07:37:22.651Z,70.70
2022-08-21T07:39:50.093Z,70.50
2022-08-21T07:42:18.017Z,66.50
2022-08-21T07:44:44.713Z,67.80
2022-08-21T07:47:11.485Z,67.50
2022-08-21T07:49:38.636Z,68.40
2022-08-21T07:52:05.400Z,69.00
2022-08-21T07:54:33.960Z,65.90
2022-08-21T07:57:02.517Z,65.20
2022-08-21T07:59:29.729Z,60.70
2022-08-21T08:01:57.495Z,60.10
2022-08-21T08:04:26.464Z,59.20
2022-08-21T08:06:53.992Z,57.20
2022-08-21T08:09:20.778Z,60.20
2022-08-21T08:11:47.500Z,60.30
2022-08-21T08:14:14.325Z,61.90
2022-08-21T08:16:41.086Z,58.50
2022-08-21T08:19:07.949Z,60.40
2022-08-21T08:21:35.210Z,60.00
2022-08-21T08:24:18.479Z,59.40
2022-08-21T08:26:46.740Z,60.10
2022-08-21T08:29:20.982Z,57.80
2022-08-21T08:31:47.673Z,56.20
2022-08-21T08:34:23.599Z,57.20
2022-08-21T08:36:52.669Z,58.20
2022-08-21T08:39:27.059Z,58.50
2022-08-21T08:42:32.262Z,58.00
2022-08-21T08:45:10.865Z,56.90
2022-08-21T08:47:42.999Z,58.20
2022-08-21T08:50:22.474Z,58.50
2022-08-21T08:52:58.706Z,59.40
2022-08-21T08:55:35.458Z,56.40
2022-08-21T08:58:03.690Z,57.30
2022-08-21T09:00:31.946Z,55.40
2022-08-21T09:03:01.996Z,59.30
2022-08-21T09:05:47.691Z,55.70
2022-08-21T09:08:19.072Z,57.30
2022-08-21T09:10:55.056Z,55.70
2022-08-21T09:13:38.771Z,55.20
2022-08-21T09:16:17.446Z,56.10
2022-08-21T09:19:01.953Z,58.70
2022-08-21T09:21:51.888Z,57.50
2022-08-21T09:24:32.644Z,57.50
2022-08-21T09:27:08.843Z,54.50
2022-08-21T09:29:41.973Z,58.10
2022-08-21T09:32:19.282Z,55.40
2022-08-21T09:35:20.860Z,54.30
2022-08-21T09:38:01.973Z,54.10
2022-08-21T09:40:47.210Z,53.80
2022-08-21T09:43:21.208Z,54.80
2022-08-21T09:45:49.777Z,56.70
2022-08-21T09:48:21.487Z,55.90
2022-08-21T09:50:50.145Z,56.90
2022-08-21T09:53:30.630Z,57.30
2022-08-21T09:56:25.181Z,57.40
2022-08-21T09:58:52.961Z,56.40
2022-08-21T10:01:25.699Z,55.70
2022-08-21T10:04:08.826Z,53.80
2022-08-21T10:06:38.437Z,52.70
2022-08-21T10:09:17.957Z,52.50
2022-08-21T10:12:11.352Z,54.80
2022-08-21T10:14:40.013Z,55.40
2022-08-21T10:17:16.816Z,52.90
2022-08-21T10:19:56.898Z,52.20
2022-08-21T10:22:46.943Z,51.40
2022-08-21T10:25:22.052Z,51.30
2022-08-21T10:28:08.969Z,55.20
2022-08-21T10:30:56.993Z,53.90
2022-08-21T10:33:29.652Z,55.00
2022-08-21T10:36:22.451Z,55.00
2022-08-21T10:39:17.733Z,54.90
2022-08-21T10:42:14.302Z,53.30
2022-08-21T10:44:55.105Z,55.00
2022-08-21T10:47:49.780Z,51.30
2022-08-21T10:50:44.305Z,51.00
2022-08-21T10:53:23.036Z,49.40
2022-08-21T10:56:00.438Z,52.30
2022-08-21T10:58:32.095Z,50.20
2022-08-21T11:01:25.857Z,50.30
2022-08-21T11:04:10.244Z,49.30
2022-08-21T11:06:40.256Z,49.80
2022-08-21T11:09:20.831Z,47.70
2022-08-21T11:12:31.251Z,46.70
2022-08-21T11:15:28.583Z,49.30
2022-08-21T11:18:12.583Z,46.80
2022-08-21T11:21:02.156Z,49.30
2022-08-21T11:23:44.432Z,47.70
2022-08-21T11:26:43.921Z,47.00
2022-08-21T11:29:29.173Z,45.60
2022-08-21T11:31:55.990Z,44.80
2022-08-21T11:34:58.924Z,46.30
2022-08-21T11:38:04.519Z,46.70
2022-08-21T11:40:55.081Z,46.00
2022-08-21T11:43:30.509Z,45.60
2022-08-21T11:46:09.861Z,47.80
2022-08-21T11:49:01.216Z,47.70
2022-08-21T11:51:51.677Z,44.50
2022-08-21T11:54:36.912Z,44.00
2022-08-21T11:57:28.494Z,45.60
2022-08-21T12:00:21.670Z,46.20
2022-08-21T12:02:55.569Z,43.80
2022-08-21T12:05:28.941Z,42.40
2022-08-21T12:08:10.393Z,41.70
2022-08-21T12:11:02.753Z,42.10
2022-08-21T12:13:40.159Z,40.40
2022-08-21T12:16:16.394Z,40.80
2022-08-21T12:18:44.145Z,40.70
2022-08-21T12:21:29.560Z,40.40
2022-08-21T12:24:28.430Z,42.90
2022-08-21T12:27:16.065Z,41.10
2022-08-21T12:29:48.980Z,42.10
2022-08-21T12:32:15.652Z,42.80
2022-08-21T12:35:08.198Z,40.70
2022-08-21T12:37:46.894Z,40.20
2022-08-21T12:40:27.032Z,40.40
2022-08-21T12:42:59.238Z,39.90
2022-08-21T12:45:31.715Z,40.10
2022-08-21T12:48:07.111Z,38.50
2022-08-21T12:50:42.524Z,37.40
2022-08-21T12:53:20.440Z,39.40
2022-08-21T12:55:48.206Z,38.50
2022-08-21T12:58:22.967Z,38.70
2022-08-21T13:01:06.472Z,38.70
2022-08-21T13:03:36.953Z,37.60
2022-08-21T13:06:07.889Z,36.60
2022-08-21T13:08:40.772Z,37.00
2022-08-21T13:11:13.680Z,37.20
2022-08-21T13:13:46.850Z,37.50
2022-08-21T13:16:25.796Z,38.50
2022-08-21T13:18:56.678Z,36.00
2022-08-21T13:21:32.207Z,37.60
2022-08-21T13:27:29.612Z,39.20
2022-08-21T13:30:19.872Z,39.20
2022-08-21T13:32:51.130Z,39.70
2022-08-21T13:35:26.631Z,41.50
2022-08-21T13:37:55.481Z,42.10
2022-08-21T13:41:12.939Z,41.10
2022-08-21T13:43:47.112Z,40.30
2022-08-21T13:46:15.696Z,40.60
2022-08-21T13:48:43.629Z,39.40
2022-08-21T13:51:11.387Z,40.40
2022-08-21T13:53:48.232Z,40.10
2022-08-21T13:56:31.134Z,39.80
2022-08-21T13:58:59.569Z,40.30
2022-08-21T14:01:33.910Z,41.70
2022-08-21T14:04:20.904Z,39.30
2022-08-21T14:06:48.051Z,38.80
2022-08-21T14:09:35.433Z,38.80
2022-08-21T14:12:12.234Z,39.50
2022-08-21T14:14:50.009Z,37.00
2022-08-21T14:17:34.976Z,37.10
2022-08-21T14:20:02.246Z,35.60
2022-08-21T14:22:42.316Z,37.40
2022-08-21T14:25:19.127Z,36.60
2022-08-21T14:27:53.327Z,35.60
2022-08-21T14:30:22.661Z,35.00
2022-08-21T14:32:50.512Z,36.00
2022-08-21T14:35:18.702Z,37.50
2022-08-21T14:37:51.407Z,35.50
2022-08-21T14:40:19.648Z,36.40
2022-08-21T14:42:47.403Z,36.20
2022-08-21T14:45:29.152Z,36.90
2022-08-21T14:47:57.690Z,36.00
2022-08-21T14:50:24.845Z,37.50
2022-08-21T14:52:55.769Z,38.00
2022-08-21T14:55:22.596Z,36.40
2022-08-21T14:57:52.580Z,35.90
2022-08-21T15:00:23.764Z,38.00
2022-08-21T15:02:54.068Z,37.20
2022-08-21T15:05:31.439Z,38.10
2022-08-21T15:07:59.960Z,39.30
2022-08-21T15:10:26.864Z,39.60
2022-08-21T15:12:53.556Z,38.90
2022-08-21T15:15:20.380Z,39.80
2022-08-21T15:17:48.476Z,39.90
2022-08-21T15:20:15.885Z,38.70
2022-08-21T15:22:50.690Z,38.50
2022-08-21T15:25:17.419Z,36.50
2022-08-21T15:27:44.177Z,36.70
2022-08-21T15:30:11.420Z,36.70
2022-08-21T15:32:39.008Z,36.00
2022-08-21T15:35:06.158Z,35.90
2022-08-21T15:37:33.291Z,35.40
2022-08-21T15:40:00.403Z,35.50
2022-08-21T15:42:28.310Z,33.30
2022-08-21T15:44:56.704Z,32.50
2022-08-21T15:47:29.860Z,31.60
2022-08-21T15:49:56.593Z,31.20
2022-08-21T15:52:24.025Z,30.30
2022-08-21T15:54:51.214Z,29.80
2022-08-21T15:57:21.676Z,29.30
2022-08-21T15:59:57.891Z,28.60
2022-08-21T16:02:29.829Z,28.10
2022-08-21T16:04:57.692Z,27.80
2022-08-21T16:07:24.737Z,27.20
2022-08-21T16:09:52.065Z,26.50
2022-08-21T16:12:25.926Z,27.20
2022-08-21T16:14:54.243Z,26.50
2022-08-21T16:17:25.993Z,27.10
2022-08-21T16:19:52.767Z,26.90
2022-08-21T16:22:19.552Z,27.50
2022-08-21T16:24:46.245Z,27.10
2022-08-21T16:27:14.008Z,27.10
2022-08-21T16:29:41.561Z,26.40
2022-08-21T16:32:08.970Z,25.80
2022-08-21T16:34:36.247Z,25.60
2022-08-21T16:37:03.353Z,26.10
2022-08-21T16:39:30.274Z,26.70
2022-08-21T16:41:56.986Z,27.20
2022-08-21T16:44:23.693Z,27.10
2022-08-21T16:46:50.632Z,27.00
2022-08-21T16:49:17.493Z,27.10
2022-08-21T16:51:44.287Z,26.90
2022-08-21T16:54:11.727Z,26.20
2022-08-21T16:56:40.463Z,26.10
2022-08-21T16:59:08.252Z,26.40
2022-08-21T17:01:36.452Z,26.10
2022-08-21T17:04:04.367Z,26.90
2022-08-21T17:06:31.693Z,26.50
2022-08-21T17:08:59.335Z,26.50
2022-08-21T17:11:36.573Z,26.60
2022-08-21T17:14:12.395Z,27.00
2022-08-21T17:16:40.747Z,26.70
2022-08-21T17:19:08.252Z,27.20
2022-08-21T17:21:35.540Z,26.40
2022-08-21T17:24:02.421Z,27.30
2022-08-21T17:26:29.403Z,27.70
2022-08-21T17:28:56.212Z,27.90
2022-08-21T17:31:23.195Z,27.90
2022-08-21T17:33:53.119Z,28.60
2022-08-21T17:36:23.293Z,29.20
2022-08-21T17:38:50.040Z,29.60
2022-08-21T17:41:18.070Z,30.10
2022-08-21T17:43:44.839Z,30.10
2022-08-21T17:46:18.353Z,30.20
2022-08-21T17:48:47.351Z,30.80
2022-08-21T17:51:15.348Z,31.60
2022-08-21T17:53:42.557Z,32.40
2022-08-21T17:56:09.433Z,33.10
2022-08-21T17:58:37.016Z,33.80
2022-08-21T18:01:05.749Z,34.70
2022-08-21T18:03:37.293Z,37.20
2022-08-21T18:06:06.451Z,39.10
2022-08-21T18:08:34.338Z,40.60
2022-08-21T18:11:01.606Z,42.80
2022-08-21T18:13:32.488Z,43.50
2022-08-21T18:16:00.266Z,44.90
2022-08-21T18:18:30.230Z,46.00
2022-08-21T18:20:58.014Z,46.70
2022-08-21T18:23:43.217Z,48.00
2022-08-21T18:26:14.397Z,48.90
2022-08-21T18:28:41.781Z,50.00
2022-08-21T18:31:10.786Z,50.80
2022-08-21T18:33:39.962Z,51.60
2022-08-21T18:36:19.676Z,52.00
2022-08-21T18:38:46.672Z,52.30
2022-08-21T18:41:13.520Z,52.70
2022-08-21T18:43:40.479Z,52.80
2022-08-21T18:46:07.489Z,52.80
2022-08-21T18:48:34.421Z,53.20
2022-08-21T18:51:01.749Z,53.50
2022-08-21T18:53:29.164Z,54.30
2022-08-21T18:55:56.913Z,55.20
2022-08-21T18:58:25.449Z,55.80
2022-08-21T19:00:54.199Z,56.20
2022-08-21T19:06:11.833Z,56.30
2022-08-21T19:08:38.822Z,56.70
2022-08-21T19:11:06.541Z,57.20
2022-08-21T19:13:34.390Z,57.60
2022-08-21T19:16:05.191Z,58.00
2022-08-21T19:18:37.330Z,58.60
2022-08-21T19:21:04.585Z,58.70
2022-08-21T19:23:31.629Z,58.30
2022-08-21T19:26:07.297Z,58.50
2022-08-21T19:28:40.819Z,58.60
2022-08-21T19:31:16.335Z,58.60
2022-08-21T19:33:46.632Z,58.60
2022-08-21T19:36:18.306Z,59.10
2022-08-21T19:38:45.973Z,59.30
2022-08-21T19:41:15.045Z,59.00
2022-08-21T19:43:46.841Z,59.00
2022-08-21T19:46:26.905Z,59.60
2022-08-21T19:48:55.403Z,60.20
2022-08-21T19:51:23.226Z,60.80
2022-08-21T19:56:39.754Z,60.90
2022-08-21T19:59:09.266Z,61.40
2022-08-21T20:01:36.285Z,61.30
2022-08-21T20:04:08.906Z,61.50
2022-08-21T20:06:45.158Z,61.50
2022-08-21T20:09:12.325Z,61.00
2022-08-21T20:11:48.628Z,61.50
2022-08-21T20:14:18.029Z,61.50
2022-08-21T20:16:48.175Z,62.10
2022-08-21T20:19:19.429Z,63.00
2022-08-21T20:21:46.388Z,62.90
2022-08-21T20:24:14.546Z,62.60
2022-08-21T20:26:49.314Z,61.80
2022-08-21T20:29:24.590Z,61.90
2022-08-21T20:32:04.328Z,61.90
2022-08-21T20:34:32.203Z,63.10
2022-08-21T20:37:01.154Z,63.90
2022-08-21T20:39:27.937Z,64.50
2022-08-21T20:41:55.646Z,64.70
2022-08-21T20:44:27.426Z,64.80
2022-08-21T20:46:54.363Z,64.90
2022-08-21T20:49:27.021Z,65.80
2022-08-21T20:51:54.250Z,66.20
2022-08-21T20:54:40.369Z,66.10
2022-08-21T20:57:13.652Z,65.60
2022-08-21T21:00:14.638Z,65.00
2022-08-21T21:02:55.931Z,65.50
2022-08-21T21:05:25.467Z,65.30
2022-08-21T21:08:07.629Z,65.10
2022-08-21T21:10:47.986Z,65.20
2022-08-21T21:13:24.164Z,65.50
2022-08-21T21:15:55.754Z,65.90
2022-08-21T21:18:56.970Z,67.00
2022-08-21T21:21:51.626Z,66.20
2022-08-21T21:24:35.376Z,66.30
2022-08-21T21:27:40.286Z,66.10
2022-08-21T21:30:23.076Z,66.10
2022-08-21T21:32:50.691Z,65.60
2022-08-21T21:35:32.447Z,65.50
2022-08-21T21:38:11.572Z,65.20
2022-08-21T21:40:47.281Z,65.50
2022-08-21T21:43:47.355Z,65.80
2022-08-21T21:46:25.845Z,66.20
2022-08-21T21:49:06.025Z,66.50
2022-08-21T21:52:03.987Z,66.60
2022-08-21T21:55:04.552Z,66.10
2022-08-21T21:57:37.244Z,66.10
2022-08-21T22:00:20.123Z,66.70
2022-08-21T22:03:31.030Z,66.70
2022-08-21T22:06:04.376Z,66.50
2022-08-21T22:08:55.736Z,66.90
2022-08-21T22:11:46.688Z,67.40
2022-08-21T22:14:16.993Z,68.10
2022-08-21T22:16:50.636Z,67.70
2022-08-21T22:19:30.701Z,67.90
2022-08-21T22:22:04.745Z,67.70
2022-08-21T22:24:36.404Z,68.30
2022-08-21T22:27:12.575Z,68.30
2022-08-21T22:29:52.568Z,68.40
2022-08-21T22:32:29.725Z,68.30
2022-08-21T22:35:14.008Z,68.30
2022-08-21T22:37:56.776Z,68.20
2022-08-21T22:40:34.886Z,67.60
2022-08-21T22:43:07.488Z,68.40
2022-08-21T22:45:54.567Z,68.80
2022-08-21T22:48:23.097Z,68.80
2022-08-21T22:51:13.564Z,69.70
2022-08-21T22:53:42.719Z,70.00
2022-08-21T22:56:25.262Z,70.00
2022-08-21T22:58:57.839Z,69.90
2022-08-21T23:01:24.493Z,70.30
2022-08-21T23:03:54.977Z,70.10
2022-08-21T23:06:32.647Z,69.90
2022-08-21T23:09:00.500Z,69.30
2022-08-21T23:11:39.816Z,69.00
2022-08-21T23:14:07.662Z,68.80
2022-08-21T23:17:05.120Z,68.60
2022-08-21T23:20:00.709Z,68.80
2022-08-21T23:22:56.065Z,68.40
2022-08-21T23:25:40.842Z,68.50
2022-08-21T23:28:36.925Z,68.80
2022-08-21T23:31:22.797Z,69.10
2022-08-21T23:34:05.974Z,68.90
2022-08-21T23:37:18.273Z,69.70
2022-08-21T23:40:20.112Z,70.00
2022-08-21T23:43:25.957Z,69.70
2022-08-21T23:46:07.110Z,69.30
2022-08-21T23:48:46.280Z,69.60
2022-08-21T23:51:13.981Z,69.90
2022-08-21T23:53:58.626Z,69.80
2022-08-21T23:57:10.615Z,69.60
2022-08-21T23:59:58.518Z,69.50
